createdAt,value
2023-03-16T00:02:14.442Z,26.63
2023-03-16T00:04:42.463Z,26.62
2023-03-16T00:07:12.104Z,26.63
2023-03-16T00:09:41.547Z,26.61
2023-03-16T00:12:15.984Z,26.61
2023-03-16T00:14:46.739Z,26.59
2023-03-16T00:17:19.164Z,26.58
2023-03-16T00:19:48.624Z,26.57
2023-03-16T00:22:17.007Z,26.54
2023-03-16T00:24:45.072Z,26.53
2023-03-16T00:27:14.709Z,26.41
2023-03-16T00:29:47.486Z,26.51
2023-03-16T00:32:17.619Z,26.50
2023-03-16T00:34:46.098Z,26.47
2023-03-16T00:37:16.709Z,26.47
2023-03-16T00:39:45.996Z,26.42
2023-03-16T00:42:16.254Z,26.44
2023-03-16T00:44:45.871Z,26.42
2023-03-16T00:47:15.300Z,26.41
2023-03-16T00:49:45.572Z,26.42
2023-03-16T00:52:15.654Z,26.41
2023-03-16T00:54:44.853Z,26.40
2023-03-16T00:57:13.763Z,26.40
2023-03-16T00:59:42.211Z,26.38
2023-03-16T01:02:12.984Z,26.32
2023-03-16T01:04:41.425Z,26.37
2023-03-16T01:07:12.288Z,26.32
2023-03-16T01:09:40.756Z,26.34
2023-03-16T01:12:12.194Z,26.33
2023-03-16T01:14:40.960Z,26.33
2023-03-16T01:17:11.352Z,26.30
2023-03-16T01:19:39.456Z,26.30
2023-03-16T01:22:07.831Z,26.29
2023-03-16T01:24:35.917Z,26.29
2023-03-16T01:27:04.574Z,26.29
2023-03-16T01:29:33.720Z,26.28
2023-03-16T01:32:02.116Z,26.27
2023-03-16T01:34:31.941Z,26.27
2023-03-16T01:37:01.557Z,26.24
2023-03-16T01:39:38.263Z,26.23
2023-03-16T01:42:07.641Z,26.23
2023-03-16T01:44:54.438Z,26.23
2023-03-16T01:47:24.081Z,26.23
2023-03-16T01:49:57.041Z,26.25
2023-03-16T01:52:33.314Z,26.24
2023-03-16T01:55:04.099Z,26.24
2023-03-16T01:57:36.951Z,26.24
2023-03-16T02:00:10.715Z,26.23
2023-03-16T02:02:57.305Z,26.14
2023-03-16T02:05:42.333Z,26.21
2023-03-16T02:08:12.454Z,26.20
2023-03-16T02:10:42.165Z,26.19
2023-03-16T02:13:11.286Z,26.07
2023-03-16T02:15:40.381Z,26.17
2023-03-16T02:18:09.953Z,26.16
2023-03-16T02:20:49.168Z,26.15
2023-03-16T02:23:21.091Z,26.11
2023-03-16T02:25:59.139Z,26.13
2023-03-16T02:28:35.550Z,26.12
2023-03-16T02:31:06.251Z,26.13
2023-03-16T02:33:35.702Z,26.13
2023-03-16T02:36:04.468Z,26.14
2023-03-16T02:38:32.705Z,26.12
2023-03-16T02:41:11.324Z,26.16
2023-03-16T02:43:43.199Z,26.16
2023-03-16T02:46:22.677Z,26.18
2023-03-16T02:48:55.929Z,26.19
2023-03-16T02:51:24.003Z,26.19
2023-03-16T02:53:52.106Z,26.21
2023-03-16T02:56:21.038Z,26.22
2023-03-16T02:58:49.097Z,26.22
2023-03-16T03:01:20.951Z,26.25
2023-03-16T03:03:50.064Z,26.27
2023-03-16T03:06:17.986Z,26.28
2023-03-16T03:08:46.516Z,26.29
2023-03-16T03:11:14.629Z,26.30
2023-03-16T03:13:44.562Z,26.30
2023-03-16T03:16:18.169Z,26.30
2023-03-16T03:18:47.684Z,26.32
2023-03-16T03:21:16.605Z,26.32
2023-03-16T03:23:46.674Z,26.32
2023-03-16T03:26:15.903Z,26.20
2023-03-16T03:28:45.704Z,26.35
2023-03-16T03:31:16.197Z,26.35
2023-03-16T03:33:44.443Z,26.38
2023-03-16T03:36:14.400Z,26.25
2023-03-16T03:38:44.395Z,26.36
2023-03-16T03:41:13.549Z,26.18
2023-03-16T03:43:41.612Z,26.34
2023-03-16T03:46:15.368Z,26.36
2023-03-16T03:48:43.477Z,26.38
2023-03-16T03:51:13.010Z,26.36
2023-03-16T03:53:58.508Z,26.35
2023-03-16T03:56:44.767Z,26.36
2023-03-16T03:59:16.532Z,26.36
2023-03-16T04:02:17.267Z,26.34
2023-03-16T04:04:50.434Z,26.34
2023-03-16T04:07:19.956Z,26.34
2023-03-16T04:09:49.406Z,26.33
2023-03-16T04:12:25.519Z,26.33
2023-03-16T04:14:54.344Z,26.33
2023-03-16T04:17:24.246Z,26.33
2023-03-16T04:19:53.603Z,26.33
2023-03-16T04:22:23.664Z,26.34
2023-03-16T04:24:53.388Z,26.32
2023-03-16T04:27:22.522Z,26.33
2023-03-16T04:29:50.539Z,26.33
2023-03-16T04:32:18.553Z,26.32
2023-03-16T04:34:47.902Z,26.32
2023-03-16T04:37:17.469Z,26.30
2023-03-16T04:39:46.848Z,26.29
2023-03-16T04:42:15.200Z,26.27
2023-03-16T04:44:45.151Z,26.28
2023-03-16T04:47:16.484Z,26.25
2023-03-16T04:49:45.609Z,26.25
2023-03-16T04:52:13.989Z,26.24
2023-03-16T04:54:42.347Z,26.23
2023-03-16T04:57:12.392Z,26.22
2023-03-16T04:59:45.241Z,26.21
2023-03-16T05:02:21.659Z,26.20
2023-03-16T05:04:50.351Z,26.18
2023-03-16T05:07:19.115Z,26.15
2023-03-16T05:09:51.251Z,26.15
2023-03-16T05:12:20.639Z,26.15
2023-03-16T05:14:53.282Z,26.13
2023-03-16T05:17:26.633Z,26.12
2023-03-16T05:19:54.868Z,26.12
2023-03-16T05:22:23.550Z,26.12
2023-03-16T05:25:26.569Z,26.10
2023-03-16T05:27:58.664Z,26.11
2023-03-16T05:30:33.642Z,26.09
2023-03-16T05:33:05.418Z,26.10
2023-03-16T05:35:34.046Z,26.11
2023-03-16T05:38:06.731Z,26.04
2023-03-16T05:40:37.616Z,26.09
2023-03-16T05:43:18.010Z,26.10
2023-03-16T05:45:51.640Z,26.09
2023-03-16T05:48:21.207Z,26.08
2023-03-16T05:50:54.852Z,26.08
2023-03-16T05:53:28.794Z,26.08
2023-03-16T05:56:01.950Z,26.08
2023-03-16T05:58:34.074Z,26.10
2023-03-16T06:01:07.287Z,25.99
2023-03-16T06:03:35.424Z,26.08
2023-03-16T06:06:04.406Z,26.08
2023-03-16T06:08:37.720Z,26.07
2023-03-16T06:11:10.087Z,26.07
2023-03-16T06:13:39.922Z,26.07
2023-03-16T06:16:08.906Z,25.96
2023-03-16T06:18:37.393Z,26.07
2023-03-16T06:21:06.001Z,26.09
2023-03-16T06:23:35.487Z,26.09
2023-03-16T06:26:05.438Z,26.12
2023-03-16T06:28:35.793Z,26.11
2023-03-16T06:31:06.069Z,26.12
2023-03-16T06:33:36.640Z,26.12
2023-03-16T06:36:05.074Z,26.15
2023-03-16T06:38:43.157Z,26.15
2023-03-16T06:41:31.393Z,26.18
2023-03-16T06:43:59.517Z,26.20
2023-03-16T06:46:29.801Z,26.13
2023-03-16T06:49:00.945Z,26.24
2023-03-16T06:51:29.075Z,26.25
2023-03-16T06:53:57.197Z,26.28
2023-03-16T06:56:27.846Z,26.32
2023-03-16T06:58:56.915Z,26.16
2023-03-16T07:01:24.993Z,26.34
2023-03-16T07:03:54.590Z,26.36
2023-03-16T07:06:27.488Z,26.37
2023-03-16T07:08:55.806Z,26.40
2023-03-16T07:11:24.567Z,26.42
2023-03-16T07:13:52.778Z,26.43
2023-03-16T07:16:23.080Z,26.45
2023-03-16T07:18:52.240Z,26.46
2023-03-16T07:21:23.092Z,26.49
2023-03-16T07:23:51.719Z,26.50
2023-03-16T07:26:25.621Z,26.51
2023-03-16T07:28:58.180Z,26.55
2023-03-16T07:31:26.889Z,26.56
2023-03-16T07:33:57.448Z,26.56
2023-03-16T07:36:38.310Z,26.38
2023-03-16T07:39:06.805Z,26.60
2023-03-16T07:41:36.097Z,26.62
2023-03-16T07:44:16.384Z,26.57
2023-03-16T07:46:48.629Z,26.63
2023-03-16T07:49:17.785Z,26.65
2023-03-16T07:51:48.763Z,26.69
2023-03-16T07:54:19.716Z,26.69
2023-03-16T07:56:49.652Z,26.69
2023-03-16T07:59:32.480Z,26.68
2023-03-16T08:02:01.629Z,26.66
2023-03-16T08:04:29.954Z,26.70
2023-03-16T08:07:02.188Z,26.71
2023-03-16T08:09:43.625Z,26.71
2023-03-16T08:12:15.767Z,26.72
2023-03-16T08:14:45.435Z,26.69
2023-03-16T08:17:18.219Z,26.69
2023-03-16T08:19:48.286Z,26.69
2023-03-16T08:22:19.011Z,26.71
2023-03-16T08:24:49.051Z,26.73
2023-03-16T08:27:19.734Z,26.75
2023-03-16T08:29:53.720Z,26.71
2023-03-16T08:32:24.525Z,26.75
2023-03-16T08:34:53.792Z,26.60
2023-03-16T08:37:24.063Z,26.80
2023-03-16T08:39:54.789Z,26.78
2023-03-16T08:42:22.739Z,26.83
2023-03-16T08:44:56.145Z,26.85
2023-03-16T08:47:25.883Z,26.87
2023-03-16T08:49:55.106Z,26.85
2023-03-16T08:52:24.398Z,26.87
2023-03-16T08:55:02.399Z,26.89
2023-03-16T08:57:31.212Z,26.90
2023-03-16T08:59:59.096Z,26.90
2023-03-16T09:02:27.147Z,26.90
2023-03-16T09:04:56.283Z,26.91
2023-03-16T09:07:26.123Z,26.91
2023-03-16T09:09:54.053Z,26.93
2023-03-16T09:12:22.425Z,26.92
2023-03-16T09:14:50.468Z,26.92
2023-03-16T09:17:18.700Z,26.95
2023-03-16T09:19:51.946Z,26.93
2023-03-16T09:22:20.715Z,26.94
2023-03-16T09:24:51.437Z,26.96
2023-03-16T09:27:20.499Z,26.97
2023-03-16T09:29:48.884Z,26.98
2023-03-16T09:32:16.755Z,26.99
2023-03-16T09:34:44.777Z,27.00
2023-03-16T09:37:12.898Z,27.02
2023-03-16T09:39:40.866Z,27.04
2023-03-16T09:42:19.242Z,27.07
2023-03-16T09:44:58.444Z,27.11
2023-03-16T09:47:30.645Z,27.12
2023-03-16T09:50:01.321Z,27.12
2023-03-16T09:52:37.495Z,27.17
2023-03-16T09:55:12.979Z,27.19
2023-03-16T09:57:45.047Z,27.20
2023-03-16T10:00:19.342Z,27.26
2023-03-16T10:03:12.601Z,27.28
2023-03-16T10:05:40.927Z,27.30
2023-03-16T10:08:15.154Z,27.32
2023-03-16T10:11:04.422Z,27.29
2023-03-16T10:13:41.629Z,27.38
2023-03-16T10:16:14.230Z,27.38
2023-03-16T10:18:46.016Z,27.39
2023-03-16T10:21:18.319Z,27.42
2023-03-16T10:23:48.706Z,27.41
2023-03-16T10:26:22.255Z,27.44
2023-03-16T10:28:52.974Z,27.44
2023-03-16T10:31:23.134Z,27.47
2023-03-16T10:33:55.653Z,27.34
2023-03-16T10:36:30.594Z,27.50
2023-03-16T10:39:00.849Z,27.52
2023-03-16T10:41:31.287Z,27.48
2023-03-16T10:44:07.501Z,27.56
2023-03-16T10:46:41.199Z,27.58
2023-03-16T10:49:22.695Z,27.61
2023-03-16T10:51:51.277Z,27.61
2023-03-16T10:54:26.901Z,27.63
2023-03-16T10:56:55.401Z,27.62
2023-03-16T10:59:32.060Z,27.63
2023-03-16T11:02:03.626Z,27.74
2023-03-16T11:04:34.961Z,27.68
2023-03-16T11:07:03.101Z,27.65
2023-03-16T11:09:34.331Z,27.64
2023-03-16T11:12:13.763Z,27.64
2023-03-16T11:14:46.704Z,27.53
2023-03-16T11:17:18.992Z,27.62
2023-03-16T11:19:53.689Z,27.61
2023-03-16T11:22:24.307Z,27.58
2023-03-16T11:24:57.275Z,27.58
2023-03-16T11:27:27.867Z,27.47
2023-03-16T11:30:06.835Z,27.54
2023-03-16T11:32:38.406Z,27.35
2023-03-16T11:35:14.793Z,27.53
2023-03-16T11:38:10.540Z,27.51
2023-03-16T11:40:48.944Z,27.49
2023-03-16T11:43:38.444Z,27.31
2023-03-16T11:46:15.645Z,27.46
2023-03-16T11:48:49.684Z,27.46
2023-03-16T11:51:33.370Z,27.46
2023-03-16T11:54:18.561Z,27.45
2023-03-16T11:56:51.064Z,27.40
2023-03-16T11:59:36.032Z,27.45
2023-03-16T12:02:33.889Z,27.44
2023-03-16T12:05:24.475Z,27.44
2023-03-16T12:08:05.384Z,27.45
2023-03-16T12:10:41.876Z,27.42
2023-03-16T12:13:27.676Z,27.33
2023-03-16T12:15:59.757Z,27.43
2023-03-16T12:18:40.203Z,27.44
2023-03-16T12:21:14.980Z,27.45
2023-03-16T12:23:50.725Z,27.43
2023-03-16T12:26:19.374Z,27.43
2023-03-16T12:28:49.313Z,27.44
2023-03-16T12:31:21.799Z,27.26
2023-03-16T12:34:05.582Z,27.44
2023-03-16T12:36:49.971Z,27.45
2023-03-16T12:39:29.808Z,27.43
2023-03-16T12:42:15.185Z,27.36
2023-03-16T12:44:49.087Z,27.44
2023-03-16T12:47:27.154Z,27.20
2023-03-16T12:50:04.192Z,27.43
2023-03-16T12:52:41.803Z,27.43
2023-03-16T12:55:16.378Z,27.38
2023-03-16T12:57:46.854Z,27.44
2023-03-16T13:00:16.141Z,27.45
2023-03-16T13:02:50.495Z,27.48
2023-03-16T13:05:32.145Z,27.52
2023-03-16T13:08:09.676Z,27.53
2023-03-16T13:10:38.710Z,27.54
2023-03-16T13:13:13.052Z,27.54
2023-03-16T13:15:42.054Z,27.54
2023-03-16T13:18:24.847Z,27.55
2023-03-16T13:20:59.695Z,27.53
2023-03-16T13:23:30.120Z,27.51
2023-03-16T13:26:13.180Z,27.52
2023-03-16T13:28:41.722Z,27.33
2023-03-16T13:31:23.452Z,27.49
2023-03-16T13:33:55.044Z,27.53
2023-03-16T13:36:25.659Z,27.53
2023-03-16T13:38:58.580Z,27.55
2023-03-16T13:41:26.704Z,27.53
2023-03-16T13:43:54.594Z,27.53
2023-03-16T13:46:28.990Z,27.45
2023-03-16T13:49:00.148Z,27.53
2023-03-16T13:51:33.154Z,27.52
2023-03-16T13:54:06.354Z,27.53
2023-03-16T13:56:34.655Z,27.53
2023-03-16T13:59:03.416Z,27.40
2023-03-16T14:01:33.512Z,27.57
2023-03-16T14:04:08.555Z,27.58
2023-03-16T14:06:38.602Z,27.56
2023-03-16T14:09:15.657Z,27.56
2023-03-16T14:11:48.410Z,27.58
2023-03-16T14:14:18.547Z,27.58
2023-03-16T14:16:46.557Z,27.56
2023-03-16T14:19:20.417Z,27.56
2023-03-16T14:21:50.157Z,27.55
2023-03-16T14:24:29.550Z,27.55
2023-03-16T14:26:58.126Z,27.36
2023-03-16T14:29:30.350Z,27.53
2023-03-16T14:31:59.850Z,27.50
2023-03-16T14:34:35.790Z,27.52
2023-03-16T14:37:10.718Z,27.50
2023-03-16T14:39:40.389Z,27.50
2023-03-16T14:42:16.693Z,27.33
2023-03-16T14:44:45.659Z,27.49
2023-03-16T14:47:22.612Z,27.51
2023-03-16T14:49:51.334Z,27.50
2023-03-16T14:52:27.245Z,27.51
2023-03-16T14:54:55.502Z,27.50
2023-03-16T14:57:24.470Z,27.50
2023-03-16T14:59:52.888Z,27.50
2023-03-16T15:02:24.976Z,27.52
2023-03-16T15:04:53.086Z,27.51
2023-03-16T15:07:27.121Z,27.52
2023-03-16T15:09:56.537Z,27.55
2023-03-16T15:12:26.200Z,27.56
2023-03-16T15:15:11.728Z,27.56
2023-03-16T15:17:39.720Z,27.56
2023-03-16T15:20:08.626Z,27.56
2023-03-16T15:22:40.058Z,27.56
2023-03-16T15:25:21.566Z,27.57
2023-03-16T15:27:50.403Z,27.54
2023-03-16T15:30:21.807Z,27.53
2023-03-16T15:32:50.109Z,27.52
2023-03-16T15:35:18.684Z,27.51
2023-03-16T15:37:48.600Z,27.51
2023-03-16T15:40:19.722Z,27.48
2023-03-16T15:42:47.696Z,27.48
2023-03-16T15:45:18.651Z,27.10
2023-03-16T15:47:46.860Z,27.45
2023-03-16T15:50:16.714Z,27.45
2023-03-16T15:52:48.853Z,27.41
2023-03-16T15:55:23.672Z,27.41
2023-03-16T15:57:58.951Z,27.41
2023-03-16T16:00:33.174Z,27.38
2023-03-16T16:03:02.069Z,27.36
2023-03-16T16:05:30.981Z,27.33
2023-03-16T16:08:01.503Z,27.33
2023-03-16T16:10:29.791Z,27.31
2023-03-16T16:12:58.481Z,27.30
2023-03-16T16:15:29.706Z,27.30
2023-03-16T16:18:19.975Z,27.29
2023-03-16T16:20:46.673Z,27.26
2023-03-16T16:23:16.020Z,27.08
2023-03-16T16:25:43.977Z,27.25
2023-03-16T16:28:17.776Z,27.26
2023-03-16T16:30:46.296Z,27.24
2023-03-16T16:33:25.721Z,27.13
2023-03-16T16:35:54.351Z,27.22
2023-03-16T16:38:24.396Z,27.22
2023-03-16T16:40:54.383Z,27.21
2023-03-16T16:43:32.668Z,27.20
2023-03-16T16:46:04.265Z,27.17
2023-03-16T16:48:35.049Z,27.15
2023-03-16T16:51:03.594Z,27.15
2023-03-16T16:53:32.889Z,27.14
2023-03-16T16:56:00.971Z,27.11
2023-03-16T16:58:28.989Z,27.08
2023-03-16T17:00:58.888Z,27.05
2023-03-16T17:03:29.032Z,26.93
2023-03-16T17:05:58.723Z,27.01
2023-03-16T17:08:27.536Z,27.00
2023-03-16T17:10:57.192Z,26.99
2023-03-16T17:13:29.747Z,26.96
2023-03-16T17:15:57.761Z,26.94
2023-03-16T17:18:27.045Z,26.88
2023-03-16T17:20:55.169Z,26.90
2023-03-16T17:23:29.283Z,26.74
2023-03-16T17:26:00.421Z,26.83
2023-03-16T17:28:40.407Z,26.88
2023-03-16T17:31:08.535Z,26.84
2023-03-16T17:33:36.494Z,26.80
2023-03-16T17:36:04.771Z,26.80
2023-03-16T17:38:33.693Z,26.79
2023-03-16T17:41:03.142Z,26.79
2023-03-16T17:43:32.892Z,26.77
2023-03-16T17:46:05.504Z,26.77
2023-03-16T17:48:33.546Z,26.77
2023-03-16T17:51:01.920Z,26.77
2023-03-16T17:53:29.873Z,26.76
2023-03-16T17:55:57.972Z,26.74
2023-03-16T17:58:31.396Z,26.74
2023-03-16T18:00:59.902Z,26.74
2023-03-16T18:03:30.508Z,26.70
2023-03-16T18:05:58.803Z,26.69
2023-03-16T18:08:28.918Z,26.68
2023-03-16T18:10:58.979Z,26.67
2023-03-16T18:13:31.671Z,26.67
2023-03-16T18:16:00.613Z,26.66
2023-03-16T18:18:31.228Z,26.61
2023-03-16T18:21:00.519Z,26.64
2023-03-16T18:23:30.971Z,26.63
2023-03-16T18:26:02.232Z,26.62
2023-03-16T18:28:32.576Z,26.60
2023-03-16T18:31:01.511Z,26.54
2023-03-16T18:33:32.857Z,26.57
2023-03-16T18:36:02.686Z,26.44
2023-03-16T18:38:32.841Z,26.53
2023-03-16T18:41:03.156Z,26.53
2023-03-16T18:43:32.635Z,26.52
2023-03-16T18:46:00.770Z,26.50
2023-03-16T18:48:31.655Z,26.49
2023-03-16T18:50:59.856Z,26.48
2023-03-16T18:53:28.942Z,26.46
2023-03-16T18:55:57.635Z,26.46
2023-03-16T18:58:26.755Z,26.45
2023-03-16T19:00:58.305Z,26.46
2023-03-16T19:03:28.784Z,26.46
2023-03-16T19:05:58.112Z,26.48
2023-03-16T19:08:27.378Z,26.48
2023-03-16T19:10:57.976Z,26.48
2023-03-16T19:13:26.434Z,26.47
2023-03-16T19:15:57.744Z,26.48
2023-03-16T19:18:26.690Z,26.48
2023-03-16T19:20:56.605Z,26.46
2023-03-16T19:23:28.550Z,26.46
2023-03-16T19:25:57.995Z,26.45
2023-03-16T19:28:29.141Z,26.46
2023-03-16T19:30:58.625Z,26.47
2023-03-16T19:33:27.573Z,26.45
2023-03-16T19:35:57.152Z,26.45
2023-03-16T19:38:26.649Z,26.34
2023-03-16T19:40:57.054Z,26.46
2023-03-16T19:43:27.068Z,26.45
2023-03-16T19:45:56.438Z,26.47
2023-03-16T19:48:31.949Z,26.30
2023-03-16T19:51:00.631Z,26.47
2023-03-16T19:53:28.561Z,26.48
2023-03-16T19:55:56.503Z,26.48
2023-03-16T19:58:32.070Z,26.49
2023-03-16T20:01:01.062Z,26.47
2023-03-16T20:03:32.845Z,26.48
2023-03-16T20:06:00.821Z,26.50
2023-03-16T20:08:29.810Z,26.07
2023-03-16T20:11:02.118Z,26.52
2023-03-16T20:13:31.693Z,26.43
2023-03-16T20:15:59.835Z,26.52
2023-03-16T20:18:28.815Z,26.33
2023-03-16T20:20:58.381Z,26.53
2023-03-16T20:23:28.248Z,26.54
2023-03-16T20:26:01.400Z,26.53
2023-03-16T20:28:35.988Z,26.54
2023-03-16T20:31:07.897Z,26.53
2023-03-16T20:33:36.011Z,26.54
2023-03-16T20:36:06.003Z,26.54
2023-03-16T20:38:34.000Z,26.53
2023-03-16T20:41:02.530Z,26.54
2023-03-16T20:43:33.303Z,26.55
2023-03-16T20:46:03.710Z,26.54
2023-03-16T20:48:32.181Z,26.52
2023-03-16T20:51:00.569Z,26.53
2023-03-16T20:53:29.953Z,26.52
2023-03-16T20:55:58.085Z,26.47
2023-03-16T20:58:28.762Z,26.54
2023-03-16T21:00:57.641Z,26.52
2023-03-16T21:03:27.622Z,26.52
2023-03-16T21:05:59.583Z,26.52
2023-03-16T21:08:29.529Z,26.51
2023-03-16T21:10:59.800Z,26.51
2023-03-16T21:13:31.749Z,26.52
2023-03-16T21:16:01.852Z,26.52
2023-03-16T21:18:30.557Z,26.53
2023-03-16T21:20:58.967Z,26.52
2023-03-16T21:23:27.004Z,26.53
2023-03-16T21:26:00.769Z,26.53
2023-03-16T21:28:32.696Z,26.53
2023-03-16T21:31:02.797Z,26.54
2023-03-16T21:33:32.885Z,26.54
2023-03-16T21:36:02.506Z,26.53
2023-03-16T21:38:33.110Z,26.57
2023-03-16T21:41:02.605Z,26.57
2023-03-16T21:43:31.258Z,26.59
2023-03-16T21:45:59.617Z,26.58
2023-03-16T21:48:38.961Z,26.52
2023-03-16T21:51:13.489Z,26.59
2023-03-16T21:53:42.339Z,26.58
2023-03-16T21:56:15.460Z,26.58
2023-03-16T21:58:43.585Z,26.58
2023-03-16T22:01:23.030Z,26.61
2023-03-16T22:03:53.130Z,26.58
2023-03-16T22:06:21.707Z,26.59
2023-03-16T22:08:51.228Z,26.58
2023-03-16T22:11:22.586Z,26.60
2023-03-16T22:13:51.482Z,26.59
2023-03-16T22:16:21.143Z,26.60
2023-03-16T22:18:51.061Z,26.62
2023-03-16T22:21:28.885Z,26.58
2023-03-16T22:23:58.157Z,26.60
2023-03-16T22:26:28.775Z,26.61
2023-03-16T22:28:57.681Z,26.49
2023-03-16T22:31:31.885Z,26.63
2023-03-16T22:34:00.608Z,26.64
2023-03-16T22:36:29.085Z,26.65
2023-03-16T22:39:00.851Z,26.58
2023-03-16T22:41:31.224Z,26.65
2023-03-16T22:43:59.669Z,26.63
2023-03-16T22:46:29.405Z,26.49
2023-03-16T22:48:58.317Z,26.60
2023-03-16T22:51:30.774Z,26.60
2023-03-16T22:54:03.404Z,26.58
2023-03-16T22:56:33.914Z,26.57
2023-03-16T22:59:04.509Z,26.53
